Time;durP1;ratioP1;P1;durP2;ratioP2;P2;SDS_P1;SDS_P2;PMS_P1;PMS_P2;Temp;Humidity;BMP_temperature;BMP_pressure;BME280_temperature;BME280_humidity;BME280_pressure;Samples;Min_cycle;Max_cycle;Signal;HPM_P1;HPM_P2
2023/01/04 00:01:13;;;;;;;4.90;1.83;;;;;;;7.46;100.00;67598.44;4991619;28;20125;-82
2023/01/04 00:03:38;;;;;;;6.35;1.73;;;;;;;;;;4979120;28;20042;-82
2023/01/04 00:06:04;;;;;;;6.43;1.98;;;;;;;;;;4978694;28;20046;-81
2023/01/04 00:08:30;;;;;;;8.77;1.92;;;;;;;;;;4991283;28;20034;-82
2023/01/04 00:11:03;;;;;;;3.83;1.65;;;;;;;7.49;100.00;67600.72;4987629;28;20494;-82
2023/01/04 00:13:31;;;;;;;8.45;1.67;;;;;;;7.50;100.00;67596.56;4985764;28;20453;-82
2023/01/04 00:15:57;;;;;;;4.70;1.20;;;;;;;7.52;100.00;67604.69;4991165;28;20482;-83
2023/01/04 00:18:23;;;;;;;6.95;1.77;;;;;;;;;;4998445;28;20052;-82
2023/01/04 00:20:48;;;;;;;8.55;1.95;;;;;;;7.57;100.00;67609.78;5003961;28;20541;-83
2023/01/04 00:23:14;;;;;;;4.82;1.75;;;;;;;7.59;100.00;67606.72;4996425;28;20662;-82
2023/01/04 00:25:39;;;;;;;7.65;1.85;;;;;;;7.60;100.00;67610.53;4989927;28;20104;-82
2023/01/04 00:28:05;;;;;;;5.60;1.92;;;;;;;7.63;100.00;67613.91;4991279;28;20129;-83
2023/01/04 00:30:30;;;;;;;7.38;2.13;;;;;;;;;;4996446;28;20036;-82
2023/01/04 00:32:56;;;;;;;5.95;1.85;;;;;;;7.61;100.00;67614.31;4997920;28;20101;-83
2023/01/04 00:35:22;;;;;;;6.35;1.90;;;;;;;;;;5008915;28;20053;-82
2023/01/04 00:37:47;;;;;;;7.10;2.05;;;;;;;;;;5005961;28;20034;-82
2023/01/04 00:40:12;;;;;;;5.65;1.40;;;;;;;7.58;100.00;67610.91;5004403;28;20046;-82
2023/01/04 00:42:37;;;;;;;5.53;2.00;;;;;;;;;;4989088;28;20045;-82
2023/01/04 00:45:03;;;;;;;8.23;2.03;;;;;;;;;;4999803;28;20042;-81
2023/01/04 00:47:28;;;;;;;6.32;1.88;;;;;;;7.53;100.00;67605.25;4989968;28;20625;-82
2023/01/04 00:49:53;;;;;;;6.90;1.75;;;;;;;;;;5001965;28;20062;-82
2023/01/04 00:52:19;;;;;;;7.63;2.30;;;;;;;;;;4991705;28;20102;-82
2023/01/04 00:54:44;;;;;;;6.88;1.60;;;;;;;7.44;100.00;67601.47;5007460;28;20058;-82
2023/01/04 00:57:09;;;;;;;4.63;1.70;;;;;;;7.40;100.00;67589.00;5009402;28;20065;-82
2023/01/04 00:59:35;;;;;;;5.53;2.25;;;;;;;;;;5009514;28;20042;-83
2023/01/04 01:02:00;;;;;;;10.95;2.05;;;;;;;7.33;100.00;67583.72;4993811;28;20097;-82
2023/01/04 01:04:25;;;;;;;3.42;1.60;;;;;;;;;;4987034;28;20063;-81
2023/01/04 01:06:51;;;;;;;6.32;2.20;;;;;;;7.28;100.00;67578.09;4994272;28;20049;-82
2023/01/04 01:09:17;;;;;;;6.45;2.10;;;;;;;;;;4992480;28;20120;-82
2023/01/04 01:11:42;;;;;;;8.27;1.92;;;;;;;;;;5009596;28;20138;-81
2023/01/04 01:14:14;;;;;;;5.22;1.90;;;;;;;7.20;100.00;67569.59;5010233;28;20046;-82
2023/01/04 01:16:39;;;;;;;5.43;2.10;;;;;;;7.18;100.00;67572.63;4995170;28;20038;-82
2023/01/04 01:19:05;;;;;;;6.38;2.38;;;;;;;;;;5002892;28;20040;-82
2023/01/04 01:21:31;;;;;;;4.03;2.08;;;;;;;;;;4990123;28;20062;-82
2023/01/04 01:23:57;;;;;;;8.23;2.33;;;;;;;7.16;100.00;67564.50;4986706;28;20042;-80
2023/01/04 01:26:24;;;;;;;8.95;2.30;;;;;;;7.14;100.00;67562.25;4986942;28;20089;-80
2023/01/04 01:28:49;;;;;;;7.40;1.92;;;;;;;7.14;100.00;67562.25;4977572;28;20098;-81
2023/01/04 01:31:21;;;;;;;5.30;1.90;;;;;;;7.14;100.00;67559.59;4987704;28;20064;-82
2023/01/04 01:33:48;;;;;;;5.72;1.92;;;;;;;7.14;100.00;67562.25;4982407;28;20041;-83
2023/01/04 01:36:15;;;;;;;3.55;1.80;;;;;;;7.12;100.00;67559.97;4991304;28;20037;-82
2023/01/04 01:38:40;;;;;;;7.10;2.13;;;;;;;;;;4981438;28;20101;-83
2023/01/04 01:41:13;;;;;;;7.90;2.75;;;;;;;7.11;100.00;67564.16;4981577;28;20125;-83
2023/01/04 01:43:48;;;;;;;11.40;2.65;;;;;;;7.11;100.00;67558.84;4992042;28;20123;-83
2023/01/04 01:46:14;;;;;;;8.05;2.60;;;;;;;7.11;100.00;67558.84;4984039;28;20042;-82
2023/01/04 01:48:40;;;;;;;7.80;2.50;;;;;;;;;;4989313;28;20065;-82
2023/01/04 01:51:06;;;;;;;7.80;2.72;;;;;;;7.06;100.00;67553.19;4985401;28;20038;-81
2023/01/04 01:53:36;;;;;;;6.28;2.53;;;;;;;7.06;100.00;67553.19;4991014;28;20073;-81
2023/01/04 01:56:04;;;;;;;6.95;2.55;;;;;;;7.04;100.00;67556.22;4987592;28;20120;-81
2023/01/04 01:58:36;;;;;;;7.78;2.60;;;;;;;7.04;100.00;67556.22;4987896;28;20529;-83
2023/01/04 02:01:02;;;;;;;7.53;3.38;;;;;;;7.01;100.00;67548.66;4989449;28;20046;-82
2023/01/04 02:03:37;;;;;;;6.82;3.55;;;;;;;7.02;100.00;67549.25;4988155;28;20039;-83
2023/01/04 02:06:04;;;;;;;6.57;2.88;;;;;;;;;;4991020;28;20042;-81
2023/01/04 02:08:30;;;;;;;5.13;2.83;;;;;;;7.00;100.00;67546.97;4996430;28;20513;-82
2023/01/04 02:10:56;;;;;;;10.93;3.67;;;;;;;7.01;100.00;67556.59;4987514;28;20089;-82
2023/01/04 02:14:25;;;;;;;10.48;3.78;;;;;;;6.99;100.00;67546.41;4991838;28;20038;-82
2023/01/04 02:16:33;;;;;;;9.73;3.45;;;;;;;6.99;100.00;67546.41;4993711;28;20077;-83
2023/01/04 02:19:30;;;;;;;7.75;4.07;;;;;;;7.00;100.00;67546.97;4996358;28;20106;-83
2023/01/04 02:22:18;;;;;;;6.80;3.67;;;;;;;6.99;100.00;67546.41;4995749;28;20061;-83
2023/01/04 02:24:58;;;;;;;9.15;3.63;;;;;;;;;;4987089;28;20042;-82
2023/01/04 02:27:39;;;;;;;6.80;4.03;;;;;;;7.04;100.00;67551.50;4985353;28;20125;-81
2023/01/04 02:30:26;;;;;;;8.90;4.60;;;;;;;7.07;100.00;67560.19;4986363;28;20045;-82
2023/01/04 02:33:01;;;;;;;10.00;5.18;;;;;;;7.10;100.00;67563.00;4990387;28;20422;-83
2023/01/04 02:35:45;;;;;;;7.78;4.75;;;;;;;7.10;100.00;67558.28;4966268;28;20053;-83
2023/01/04 02:38:25;;;;;;;7.47;5.40;;;;;;;7.12;100.00;67560.53;4962326;28;20057;-83
2023/01/04 02:41:33;;;;;;;6.60;5.05;;;;;;;7.14;100.00;67567.53;4983204;28;20050;-81
2023/01/04 02:47:02;;;;;;;6.22;5.50;;;;;;;7.16;100.00;67569.78;4991184;28;20185;-82
2023/01/04 02:52:12;;;;;;;8.77;5.57;;;;;;;7.23;100.00;67572.44;4991123;28;20178;-83
2023/01/04 02:54:38;;;;;;;7.13;5.22;;;;;;;7.26;100.00;67581.13;4992616;28;20079;-82
2023/01/04 02:57:03;;;;;;;8.98;6.05;;;;;;;7.31;100.00;67581.47;4986781;28;20050;-82
2023/01/04 02:59:31;;;;;;;12.00;6.68;;;;;;;;;;4988416;28;20052;-83
2023/01/04 03:07:38;;;;;;;11.15;6.82;;;;;;;7.41;100.00;67592.78;4987051;28;20061;-82
2023/01/04 03:10:17;;;;;;;11.35;6.32;;;;;;;7.44;100.00;67596.19;4989694;28;20049;-83
2023/01/04 03:12:46;;;;;;;7.55;6.50;;;;;;;;;;4994491;28;20054;-83
2023/01/04 03:15:21;;;;;;;6.80;6.10;;;;;;;7.52;100.00;67598.81;4992469;28;20050;-83
2023/01/04 03:17:56;;;;;;;9.38;6.78;;;;;;;7.53;100.00;67605.81;4982442;28;20051;-82
2023/01/04 03:20:23;;;;;;;7.57;6.75;;;;;;;7.58;100.00;67610.91;4987527;28;20042;-83
2023/01/04 03:37:19;;;;;;;7.78;5.70;;;;;;;7.76;100.00;67636.00;4994639;28;20049;-83
2023/01/04 03:49:12;;;;;;;8.20;5.72;;;;;;;;;;4997846;28;20053;-82
2023/01/04 03:51:38;;;;;;;6.68;5.05;;;;;;;7.94;100.00;67648.44;4989259;28;20066;-84
2023/01/04 03:54:07;;;;;;;7.43;4.60;;;;;;;7.97;100.00;67654.50;4988801;28;20135;-83
2023/01/04 03:56:34;;;;;;;6.38;5.75;;;;;;;;;;4985424;28;20042;-83
2023/01/04 03:59:00;;;;;;;7.68;5.60;;;;;;;8.04;100.00;67659.75;4988432;28;20531;-81
2023/01/04 04:01:26;;;;;;;6.53;5.18;;;;;;;;;;4987064;28;20062;-82
2023/01/04 04:09:20;;;;;;;6.40;4.70;;;;;;;8.12;100.00;67666.16;4990129;28;20045;-83
2023/01/04 04:11:45;;;;;;;6.32;4.80;;;;;;;;;;4980203;28;20055;-83
2023/01/04 04:14:11;;;;;;;6.28;4.50;;;;;;;8.19;100.00;67678.81;4983512;28;20058;-82
2023/01/04 04:16:36;;;;;;;7.82;5.82;;;;;;;8.23;100.00;67677.47;4992229;28;20585;-83
2023/01/04 04:19:01;;;;;;;6.82;5.32;;;;;;;8.22;100.00;67682.22;4990411;28;20129;-84
2023/01/04 04:21:27;;;;;;;8.50;5.25;;;;;;;;;;4987644;28;20102;-83
2023/01/04 04:23:54;;;;;;;8.27;5.10;;;;;;;8.27;100.00;67687.34;4985442;28;21643;-83
2023/01/04 04:26:19;;;;;;;6.00;4.82;;;;;;;8.29;100.00;67690.16;4984618;28;20060;-83
2023/01/04 04:28:45;;;;;;;10.23;5.55;;;;;;;8.31;100.00;67692.41;4982340;28;20046;-82
2023/01/04 04:31:11;;;;;;;4.93;4.00;;;;;;;8.32;100.00;67690.91;4983219;28;21640;-82
2023/01/04 04:33:36;;;;;;;4.72;4.00;;;;;;;8.34;100.00;67693.19;4980486;28;20042;-82
2023/01/04 04:36:02;;;;;;;7.47;4.57;;;;;;;8.38;100.00;67699.22;4979382;28;20056;-83
2023/01/04 04:38:27;;;;;;;6.53;4.90;;;;;;;8.40;100.00;67706.81;4980329;28;20495;-83
2023/01/04 04:43:37;;;;;;;6.47;4.93;;;;;;;8.46;100.00;67708.88;4982633;28;20084;-83
2023/01/04 04:46:02;;;;;;;4.68;4.22;;;;;;;8.49;100.00;67709.06;4982459;28;20562;-82
2023/01/04 04:48:27;;;;;;;5.82;4.10;;;;;;;;;;4982841;28;20058;-82
2023/01/04 04:50:53;;;;;;;5.30;4.22;;;;;;;;;;4982946;28;20473;-82
2023/01/04 04:53:18;;;;;;;5.97;4.55;;;;;;;8.52;100.00;67715.66;4982124;28;20054;-82
2023/01/04 04:55:43;;;;;;;5.10;4.57;;;;;;;8.54;100.00;67722.66;4983888;28;20041;-82
2023/01/04 04:58:09;;;;;;;7.03;4.10;;;;;;;8.55;100.00;67718.50;4981825;28;20550;-83
2023/01/04 05:00:34;;;;;;;6.25;4.05;;;;;;;8.57;100.00;67716.03;4982000;28;20591;-83
2023/01/04 05:03:01;;;;;;;5.97;4.63;;;;;;;8.59;100.00;67723.59;4982230;28;20102;-83
2023/01/04 05:05:26;;;;;;;5.70;4.50;;;;;;;8.61;100.00;67722.66;4980313;28;20074;-83
2023/01/04 05:07:52;;;;;;;5.90;4.85;;;;;;;8.63;100.00;67724.91;4984327;28;20427;-83
2023/01/04 05:10:17;;;;;;;5.63;4.55;;;;;;;8.66;100.00;67728.31;4982402;28;20054;-83
2023/01/04 05:12:58;;;;;;;5.25;4.47;;;;;;;8.65;100.00;67729.25;4980755;28;20491;-81
2023/01/04 05:15:29;;;;;;;4.55;4.15;;;;;;;8.68;100.00;67733.22;4985169;28;20042;-83
2023/01/04 05:17:54;;;;;;;4.93;4.40;;;;;;;8.69;100.00;67733.78;4984515;28;20042;-82
2023/01/04 05:20:20;;;;;;;6.03;4.60;;;;;;;8.70;100.00;67734.94;4989265;28;20049;-82
2023/01/04 05:22:45;;;;;;;6.70;5.15;;;;;;;;;;4981282;28;20457;-82
2023/01/04 05:25:11;;;;;;;6.93;4.85;;;;;;;;;;4983982;28;20446;-84
2023/01/04 05:27:36;;;;;;;7.90;5.38;;;;;;;8.76;100.00;67739.63;4987165;28;20109;-83
2023/01/04 05:32:47;;;;;;;4.53;4.13;;;;;;;;;;4979129;28;20445;-83
2023/01/04 05:35:13;;;;;;;4.15;3.75;;;;;;;;;;4983009;28;20046;-83
2023/01/04 05:37:38;;;;;;;4.90;4.45;;;;;;;8.79;100.00;67745.13;4983259;28;20042;-83
2023/01/04 05:40:03;;;;;;;5.75;4.05;;;;;;;;;;4989105;28;20466;-84
2023/01/04 05:42:29;;;;;;;5.55;4.63;;;;;;;8.81;100.00;67747.97;4988536;28;20109;-83
2023/01/04 05:44:55;;;;;;;5.13;3.90;;;;;;;;;;4988987;28;20049;-83
2023/01/04 05:47:21;;;;;;;5.07;4.47;;;;;;;8.85;100.00;67748.69;4984279;28;20422;-83
2023/01/04 05:49:46;;;;;;;4.40;4.00;;;;;;;8.86;100.00;67752.47;4980751;28;20101;-83
2023/01/04 05:52:11;;;;;;;4.45;4.05;;;;;;;8.89;100.00;67753.22;4988919;28;20051;-83
2023/01/04 05:54:37;;;;;;;5.65;5.15;;;;;;;;;;4978924;28;20049;-83
2023/01/04 05:57:02;;;;;;;4.88;4.38;;;;;;;8.89;100.00;67756.47;4982950;28;20061;-83
2023/01/04 05:59:27;;;;;;;5.82;5.32;;;;;;;;;;4986133;28;20097;-83
2023/01/04 06:01:53;;;;;;;5.53;5.03;;;;;;;8.95;100.00;67762.69;4985129;28;20070;-83
2023/01/04 06:04:19;;;;;;;5.05;4.30;;;;;;;8.96;100.00;67763.81;4988504;28;20169;-83
2023/01/04 06:06:44;;;;;;;5.18;4.68;;;;;;;;;;4986139;28;20058;-83
2023/01/04 06:09:09;;;;;;;7.90;5.30;;;;;;;9.00;100.00;67765.69;4986125;28;20046;-83
2023/01/04 06:11:35;;;;;;;6.15;5.55;;;;;;;9.02;100.00;67770.63;4980033;28;20105;-83
2023/01/04 06:14:00;;;;;;;5.95;5.45;;;;;;;9.02;100.00;67770.63;4972621;28;20050;-83
2023/01/04 06:16:25;;;;;;;5.97;5.00;;;;;;;9.04;100.00;67778.19;4980904;28;20034;-83
2023/01/04 06:18:51;;;;;;;5.95;5.45;;;;;;;;;;4991441;28;20053;-83
2023/01/04 06:21:16;;;;;;;5.80;5.30;;;;;;;9.07;100.00;67770.97;4986466;28;20101;-83
2023/01/04 06:23:41;;;;;;;6.88;5.47;;;;;;;9.08;100.00;67782.72;4985969;28;20057;-83
2023/01/04 06:26:07;;;;;;;5.38;4.88;;;;;;;9.10;100.00;67774.38;4987236;28;20038;-84
2023/01/04 06:28:32;;;;;;;7.97;4.93;;;;;;;;;;4978741;28;20054;-84
2023/01/04 06:31:01;;;;;;;7.93;5.90;;;;;;;9.12;100.00;67776.06;4985908;28;20073;-84
2023/01/04 06:33:26;;;;;;;5.90;5.25;;;;;;;;;;4989204;28;20042;-83
2023/01/04 06:35:53;;;;;;;6.38;5.78;;;;;;;9.11;100.00;67778.16;4990100;28;20061;-83
2023/01/04 06:38:19;;;;;;;8.05;7.25;;;;;;;9.12;100.00;67781.97;4992173;28;20042;-83
2023/01/04 06:40:44;;;;;;;8.15;5.45;;;;;;;9.13;100.00;67788.41;4979896;28;20054;-84
2023/01/04 06:43:09;;;;;;;5.50;4.93;;;;;;;9.13;100.00;67783.09;4990504;28;20073;-84
2023/01/04 06:45:35;;;;;;;6.30;5.70;;;;;;;9.14;100.00;67783.66;4978596;28;20074;-83
2023/01/04 06:48:00;;;;;;;6.53;5.97;;;;;;;9.16;100.00;67786.47;4983087;28;20057;-83
2023/01/04 06:50:25;;;;;;;6.20;5.60;;;;;;;9.15;100.00;67782.13;4991049;28;20069;-83
2023/01/04 06:52:51;;;;;;;7.10;6.40;;;;;;;9.17;100.00;67787.59;4987580;28;20082;-83
2023/01/04 06:55:16;;;;;;;6.60;5.82;;;;;;;;;;4986446;28;20046;-83
2023/01/04 06:57:41;;;;;;;7.70;7.00;;;;;;;9.18;100.00;67788.75;4986916;28;20054;-83
2023/01/04 07:00:07;;;;;;;7.82;7.03;;;;;;;;;;4989471;28;20050;-83
2023/01/04 07:02:33;;;;;;;7.28;5.85;;;;;;;9.21;100.00;67792.16;4985889;28;20411;-83
2023/01/04 07:04:58;;;;;;;7.07;6.38;;;;;;;9.22;100.00;67787.97;4984640;28;20046;-83
2023/01/04 07:07:24;;;;;;;8.38;6.30;;;;;;;9.24;100.00;67795.56;4982314;28;20126;-83
2023/01/04 07:09:49;;;;;;;7.38;6.72;;;;;;;9.25;100.00;67796.69;4986315;28;20469;-83
2023/01/04 07:12:15;;;;;;;7.90;7.10;;;;;;;9.28;100.00;67799.53;4989048;28;20077;-83
2023/01/04 07:14:40;;;;;;;8.40;7.38;;;;;;;9.31;100.00;67799.69;4978231;28;20472;-83
2023/01/04 07:17:05;;;;;;;7.75;6.78;;;;;;;;;;4984791;28;20042;-83
2023/01/04 07:19:30;;;;;;;8.52;6.72;;;;;;;9.35;100.00;67806.88;4977233;28;20042;-83
2023/01/04 07:21:57;;;;;;;7.65;6.80;;;;;;;;;;4980820;28;20050;-83
2023/01/04 07:24:23;;;;;;;8.95;8.15;;;;;;;9.38;100.00;67810.88;4987649;28;20053;-83
2023/01/04 07:26:48;;;;;;;7.65;6.30;;;;;;;9.41;100.00;67814.25;4982586;28;20050;-83
2023/01/04 07:29:14;;;;;;;7.55;6.95;;;;;;;;;;4984654;28;20042;-83
2023/01/04 07:31:40;;;;;;;8.45;6.95;;;;;;;9.48;100.00;67821.63;4986535;28;20145;-83
2023/01/04 07:34:06;;;;;;;7.75;7.05;;;;;;;9.47;100.00;67817.84;4988500;28;20056;-83
2023/01/04 07:36:31;;;;;;;8.25;6.95;;;;;;;9.49;100.00;67820.69;4981789;28;20045;-83
2023/01/04 07:38:59;;;;;;;8.23;7.43;;;;;;;9.52;100.00;67826.16;4986497;28;20046;-84
2023/01/04 07:41:24;;;;;;;8.13;7.43;;;;;;;9.55;100.00;67826.91;4984337;28;20565;-84
2023/01/04 07:43:50;;;;;;;7.22;6.53;;;;;;;9.56;100.00;67828.03;4990799;28;20046;-83
2023/01/04 07:46:15;;;;;;;7.30;6.70;;;;;;;9.58;100.00;67830.31;4985949;28;20057;-84
2023/01/04 07:48:41;;;;;;;7.03;6.43;;;;;;;9.59;100.00;67834.09;4984622;28;20047;-84
2023/01/04 07:51:06;;;;;;;6.97;6.38;;;;;;;9.61;100.00;67835.78;4988972;28;20050;-84
2023/01/04 07:53:32;;;;;;;7.10;6.40;;;;;;;;;;4992260;28;20047;-84
2023/01/04 07:55:58;;;;;;;7.00;6.40;;;;;;;9.66;100.00;67842.03;4984587;28;20069;-83
2023/01/04 07:58:25;;;;;;;7.90;7.15;;;;;;;9.67;100.00;67843.16;4991073;28;20070;-83
2023/01/04 08:00:50;;;;;;;5.82;5.22;;;;;;;9.68;100.00;67844.28;4982112;28;20070;-82
2023/01/04 08:03:16;;;;;;;7.13;6.43;;;;;;;9.69;100.00;67839.53;4986109;28;20516;-82
2023/01/04 08:05:41;;;;;;;7.00;6.30;;;;;;;;;;4989181;28;20141;-83
2023/01/04 08:08:07;;;;;;;7.38;5.78;;;;;;;9.73;100.00;67848.84;4984125;28;20047;-83
2023/01/04 08:10:32;;;;;;;7.25;6.55;;;;;;;9.74;100.00;67847.31;4985102;28;20132;-83
2023/01/04 08:12:58;;;;;;;6.88;6.28;;;;;;;;;;4980154;28;20094;-83
2023/01/04 08:15:25;;;;;;;8.10;7.40;;;;;;;9.73;100.00;67846.75;4981417;28;20403;-82
2023/01/04 08:17:50;;;;;;;6.53;6.00;;;;;;;9.72;100.00;67848.25;4974377;28;20047;-83
2023/01/04 08:20:16;;;;;;;6.95;6.35;;;;;;;9.72;100.00;67845.59;4980617;28;20422;-82
2023/01/04 08:22:41;;;;;;;7.05;6.45;;;;;;;9.73;100.00;67846.19;4987747;28;20113;-82
2023/01/04 08:25:07;;;;;;;7.82;7.13;;;;;;;9.73;100.00;67848.84;4991037;28;20038;-82
2023/01/04 08:27:33;;;;;;;7.93;7.22;;;;;;;9.74;100.00;67845.22;4985331;28;20481;-83
2023/01/04 08:29:58;;;;;;;7.75;6.40;;;;;;;9.75;100.00;67851.09;4976648;28;20047;-83
2023/01/04 08:32:24;;;;;;;8.55;7.63;;;;;;;9.75;100.00;67856.97;4980638;28;20089;-82
2023/01/04 08:34:49;;;;;;;8.10;7.38;;;;;;;9.76;100.00;67850.16;4987239;28;20048;-82
2023/01/04 08:37:15;;;;;;;8.13;7.35;;;;;;;9.77;100.00;67850.72;4999651;28;20438;-82
2023/01/04 08:39:40;;;;;;;8.48;7.68;;;;;;;9.78;100.00;67855.09;4993161;28;20049;-83
2023/01/04 08:42:05;;;;;;;10.65;7.53;;;;;;;;;;4992979;28;20056;-82
2023/01/04 08:44:33;;;;;;;10.20;7.88;;;;;;;9.81;100.00;67857.91;4993508;28;20097;-82
2023/01/04 08:46:58;;;;;;;9.43;8.23;;;;;;;9.83;100.00;67860.16;4968771;28;20046;-83
2023/01/04 08:49:24;;;;;;;10.30;8.40;;;;;;;9.82;100.00;67856.38;4972093;28;20041;-83
2023/01/04 08:51:49;;;;;;;13.95;9.75;;;;;;;9.84;100.00;67861.31;4961170;28;20385;-83
2023/01/04 08:54:15;;;;;;;8.75;7.93;;;;;;;9.84;100.00;67861.31;4961863;28;20051;-83
2023/01/04 08:56:41;;;;;;;11.60;8.93;;;;;;;9.84;100.00;67861.88;4973056;28;20073;-82
2023/01/04 08:59:08;;;;;;;10.02;7.45;;;;;;;9.85;100.00;67863.00;4969243;28;20047;-83
2023/01/04 09:01:34;;;;;;;9.05;8.07;;;;;;;9.87;100.00;67870.03;4969725;28;20078;-83
2023/01/04 09:04:00;;;;;;;7.53;6.82;;;;;;;9.88;100.00;67865.84;4973581;28;20041;-83
2023/01/04 09:06:25;;;;;;;10.00;8.60;;;;;;;;;;4964971;28;20051;-83
2023/01/04 09:08:51;;;;;;;8.48;7.68;;;;;;;;;;4962496;28;20126;-83
2023/01/04 09:11:21;;;;;;;8.48;7.25;;;;;;;9.91;100.00;67869.25;4972194;28;20042;-83
2023/01/04 09:13:47;;;;;;;8.07;7.13;;;;;;;9.90;100.00;67866.03;4960331;28;20205;-82
2023/01/04 09:16:15;;;;;;;7.35;6.65;;;;;;;9.89;100.00;67867.53;4957056;28;20438;-82
2023/01/04 09:18:42;;;;;;;6.97;6.28;;;;;;;9.92;100.00;67870.38;4971289;28;20046;-82
2023/01/04 09:21:11;;;;;;;11.00;8.07;;;;;;;9.92;100.00;67870.38;4972016;28;20410;-83
2023/01/04 09:23:38;;;;;;;8.63;7.82;;;;;;;9.93;100.00;67876.84;4968960;28;20047;-82
2023/01/04 09:26:12;;;;;;;8.27;7.47;;;;;;;9.95;100.00;67871.13;4969754;28;20078;-83
2023/01/04 09:28:38;;;;;;;7.93;6.95;;;;;;;9.96;100.00;67871.69;4958253;28;20043;-82
2023/01/04 09:31:07;;;;;;;8.75;7.60;;;;;;;;;;4963697;28;20063;-82
2023/01/04 09:33:33;;;;;;;10.15;8.07;;;;;;;10.00;100.00;67876.78;4960894;28;20039;-82
2023/01/04 09:36:07;;;;;;;8.57;7.72;;;;;;;10.00;100.00;67879.44;4961777;28;20065;-83
2023/01/04 09:38:34;;;;;;;10.52;8.77;;;;;;;10.01;100.00;67877.94;4962623;28;20710;-83
2023/01/04 09:41:23;;;;;;;9.55;8.57;;;;;;;10.04;100.00;67881.34;4962076;28;20042;-82
2023/01/04 09:44:00;;;;;;;9.13;8.32;;;;;;;10.05;100.00;67881.91;4967148;28;20539;-83
2023/01/04 09:46:37;;;;;;;9.57;8.27;;;;;;;10.05;100.00;67882.47;4962636;28;20050;-83
2023/01/04 09:49:34;;;;;;;10.00;7.38;;;;;;;10.06;100.00;67886.25;4981011;28;20051;-82
2023/01/04 09:52:09;;;;;;;9.02;8.13;;;;;;;10.09;100.00;67889.09;4960413;28;20051;-82
2023/01/04 09:54:58;;;;;;;10.65;9.63;;;;;;;10.10;100.00;67888.16;4966037;28;20043;-82
2023/01/04 09:57:34;;;;;;;12.38;9.38;;;;;;;10.13;100.00;67891.53;4962634;28;20049;-83
2023/01/04 10:00:09;;;;;;;10.43;9.30;;;;;;;10.15;100.00;67895.91;4957578;28;20607;-82
2023/01/04 10:02:48;;;;;;;8.35;7.47;;;;;;;10.17;100.00;67895.50;4960515;28;20089;-82
2023/01/04 10:05:16;;;;;;;9.73;8.73;;;;;;;;;;4968872;28;20050;-83
2023/01/04 10:07:42;;;;;;;9.05;7.82;;;;;;;10.24;100.00;67902.88;4960207;28;20050;-83
2023/01/04 10:10:14;;;;;;;10.65;7.95;;;;;;;10.26;100.00;67907.81;4965480;28;20034;-83
2023/01/04 10:13:11;;;;;;;10.32;7.97;;;;;;;10.28;100.00;67910.66;4957106;28;20403;-82
2023/01/04 10:15:59;;;;;;;9.10;8.20;;;;;;;10.30;100.00;67907.03;4962115;28;20128;-83
2023/01/04 10:19:00;;;;;;;9.65;8.75;;;;;;;10.31;100.00;67910.84;4978645;28;20499;-83
2023/01/04 10:21:37;;;;;;;12.70;8.60;;;;;;;10.34;100.00;67916.91;4973805;28;20055;-83
2023/01/04 10:24:03;;;;;;;9.10;8.05;;;;;;;10.36;100.00;67919.19;4973368;28;20058;-83
2023/01/04 10:26:54;;;;;;;10.00;8.10;;;;;;;10.38;100.00;67918.78;4961473;28;20041;-83
2023/01/04 10:29:58;;;;;;;10.23;7.38;;;;;;;10.40;100.00;67923.72;4965069;28;20050;-82
2023/01/04 10:32:44;;;;;;;10.65;9.40;;;;;;;10.42;100.00;67930.75;4942269;28;20496;-82
2023/01/04 10:35:24;;;;;;;9.00;7.78;;;;;;;10.43;100.00;67923.91;5000046;28;20046;-83
2023/01/04 10:37:59;;;;;;;8.60;7.25;;;;;;;10.45;100.00;67926.16;4979636;28;20120;-83
2023/01/04 10:40:27;;;;;;;12.38;8.15;;;;;;;10.48;100.00;67932.22;4977661;28;20784;-82
2023/01/04 10:43:01;;;;;;;8.30;7.30;;;;;;;;;;4992725;28;20659;-83
2023/01/04 10:45:48;;;;;;;12.85;8.75;;;;;;;10.50;100.00;67929.16;4983883;28;20048;-83
2023/01/04 10:48:17;;;;;;;11.48;8.15;;;;;;;;;;4975255;28;20043;-83
2023/01/04 10:50:56;;;;;;;12.93;8.05;;;;;;;10.50;100.00;67935.06;4953068;28;20046;-83
2023/01/04 10:53:27;;;;;;;8.43;7.63;;;;;;;10.50;100.00;67934.50;4973724;28;20053;-83
2023/01/04 10:56:04;;;;;;;7.60;6.90;;;;;;;10.50;100.00;67935.06;4970746;28;20577;-82
2023/01/04 10:58:43;;;;;;;11.63;7.43;;;;;;;10.51;100.00;67933.53;4958822;28;20051;-82
2023/01/04 11:01:27;;;;;;;8.07;7.18;;;;;;;10.51;100.00;67936.19;4978442;28;20047;-83
2023/01/04 11:03:57;;;;;;;9.85;8.60;;;;;;;;;;4964221;28;20075;-82
2023/01/04 11:06:32;;;;;;;7.03;6.28;;;;;;;10.53;100.00;67938.47;4973223;28;20043;-80
2023/01/04 11:09:19;;;;;;;7.35;6.63;;;;;;;10.55;100.00;67938.06;4970823;28;20097;-80
2023/01/04 11:11:46;;;;;;;8.18;7.38;;;;;;;10.54;100.00;67944.94;4981559;28;20039;-82
2023/01/04 11:14:13;;;;;;;8.90;7.03;;;;;;;10.55;100.00;67934.84;4974905;28;20058;-82
2023/01/04 11:16:40;;;;;;;8.00;7.22;;;;;;;10.55;100.00;67940.72;4967733;28;20358;-81
2023/01/04 11:19:08;;;;;;;8.27;7.47;;;;;;;;;;4968331;28;20055;-82
2023/01/04 11:21:44;;;;;;;9.05;7.05;;;;;;;10.57;100.00;67940.34;4970484;28;20051;-81
2023/01/04 11:24:11;;;;;;;8.60;7.80;;;;;;;10.59;100.00;67950.59;4974677;28;20079;-82
2023/01/04 11:26:40;;;;;;;9.07;6.97;;;;;;;10.60;100.00;67938.44;4971121;28;20050;-82
2023/01/04 11:29:22;;;;;;;6.60;6.00;;;;;;;10.61;100.00;67946.97;4978172;28;20071;-83
2023/01/04 11:31:55;;;;;;;7.53;6.80;;;;;;;10.61;100.00;67944.31;4977472;28;20042;-82
2023/01/04 11:34:44;;;;;;;7.80;7.07;;;;;;;10.63;100.00;67943.38;4975912;28;20042;-82
2023/01/04 11:37:32;;;;;;;;;;;;;;;10.64;100.00;67944.50;4969581;28;20390;-82
2023/01/04 11:40:18;;;;;;;8.88;7.53;;;;;;;10.57;100.00;67943.00;4969136;28;19921;-82
2023/01/04 11:42:45;;;;;;;7.70;7.03;;;;;;;10.57;100.00;67940.34;4967758;28;20047;-82
2023/01/04 11:45:26;;;;;;;8.07;7.43;;;;;;;10.61;100.00;67947.53;4975322;28;20058;-81
2023/01/04 11:47:54;;;;;;;8.00;7.18;;;;;;;10.61;100.00;67947.53;4973706;28;20038;-81
2023/01/04 11:50:39;;;;;;;7.95;7.25;;;;;;;10.63;100.00;67946.59;4976129;28;20042;-82
2023/01/04 11:53:33;;;;;;;7.63;6.93;;;;;;;10.65;100.00;67950.97;5018502;23;20046;-85
2023/01/04 11:56:14;;;;;;;7.55;6.85;;;;;;;10.64;100.00;67949.81;5004325;28;20042;-85
2023/01/04 11:58:41;;;;;;;7.95;7.00;;;;;;;10.64;100.00;67950.38;5012786;28;20075;-85
2023/01/04 12:01:22;;;;;;;6.97;6.35;;;;;;;10.65;100.00;67951.53;5007833;28;20092;-85
2023/01/04 12:03:48;;;;;;;6.57;6.07;;;;;;;10.67;100.00;67953.78;5014451;28;20481;-85
2023/01/04 12:06:29;;;;;;;7.60;6.90;;;;;;;10.70;100.00;67953.97;5004826;28;20119;-85
2023/01/04 12:08:55;;;;;;;7.28;6.57;;;;;;;10.69;100.00;67956.06;5007121;28;20045;-85
2023/01/04 12:11:28;;;;;;;7.57;6.97;;;;;;;10.71;100.00;67955.09;5002426;28;20097;-86
2023/01/04 12:13:55;;;;;;;7.78;7.07;;;;;;;10.72;100.00;67954.13;4997420;28;20052;-84
2023/01/04 12:16:49;;;;;;;7.97;7.32;;;;;;;10.73;100.00;67957.34;5007919;28;20098;-85
2023/01/04 12:19:16;;;;;;;7.45;6.75;;;;;;;10.72;100.00;67956.22;4996228;28;20050;-85
2023/01/04 12:21:45;;;;;;;7.75;6.95;;;;;;;10.74;100.00;67956.41;5001438;28;20030;-85
2023/01/04 12:24:16;;;;;;;7.13;6.53;;;;;;;10.74;100.00;67958.50;5005812;28;20050;-85
2023/01/04 12:26:41;;;;;;;7.70;7.07;;;;;;;10.75;100.00;67962.28;5001874;28;20042;-85
2023/01/04 12:29:22;;;;;;;7.30;6.65;;;;;;;10.77;100.00;67962.47;5000556;28;20049;-86
2023/01/04 12:31:59;;;;;;;7.82;7.07;;;;;;;10.76;100.00;67958.69;5001721;28;20525;-85
2023/01/04 12:34:26;;;;;;;6.65;6.05;;;;;;;10.76;100.00;67964.00;5000003;28;20787;-84
2023/01/04 12:37:03;;;;;;;6.50;5.90;;;;;;;10.77;100.00;67965.13;5006239;28;20049;-84
2023/01/04 12:39:46;;;;;;;6.78;6.18;;;;;;;10.79;100.00;67966.84;5009627;28;20447;-85
2023/01/04 12:42:23;;;;;;;6.78;6.18;;;;;;;10.80;100.00;67967.97;4998607;28;20125;-85
2023/01/04 12:44:50;;;;;;;6.95;6.35;;;;;;;10.81;100.00;67966.44;5007570;28;20044;-85
2023/01/04 12:50:12;;;;;;;6.63;5.95;;;;;;;10.83;100.00;67968.72;5002105;28;20584;-85
2023/01/04 12:52:37;;;;;;;6.28;5.78;;;;;;;10.85;100.00;67971.00;5012124;28;20052;-85
2023/01/04 12:55:22;;;;;;;5.18;4.78;;;;;;;10.87;100.00;67973.25;5007167;28;20046;-85
2023/01/04 12:57:47;;;;;;;5.03;4.63;;;;;;;;;;5001652;28;20046;-85
2023/01/04 13:00:14;;;;;;;6.18;5.05;;;;;;;10.96;100.00;67986.16;5004656;28;20053;-85
2023/01/04 13:03:07;;;;;;;6.10;5.60;;;;;;;10.98;100.00;67985.72;5013066;28;20033;-85